Time;durP1;ratioP1;P1;durP2;ratioP2;P2;SDS_P1;SDS_P2;PMS_P1;PMS_P2;Temp;Humidity;BMP_temperature;BMP_pressure;BME280_temperature;BME280_humidity;BME280_pressure;Samples;Min_cycle;Max_cycle;Signal;HPM_P1;HPM_P2
2022/02/01 00:03:49;;;;;;;14.60;3.40;;;2.90;99.90;;;;;;5113748;28;20043;-78
2022/02/01 00:08:51;;;;;;;16.95;1.98;;;2.60;99.90;;;;;;5113458;28;20019;-77
2022/02/01 00:11:39;;;;;;;12.82;1.80;;;2.60;99.90;;;;;;5117935;28;20043;-77
2022/02/01 00:35:57;;;;;;;8.40;1.90;;;2.90;99.90;;;;;;5112508;28;20375;-78
2022/02/01 00:38:34;;;;;;;15.88;1.83;;;2.90;99.90;;;;;;5112427;28;20031;-77
2022/02/01 00:41:04;;;;;;;17.30;2.80;;;2.90;99.90;;;;;;5112388;28;20034;-76
2022/02/01 00:43:31;;;;;;;19.42;3.17;;;2.90;99.90;;;;;;5112538;28;20425;-77
2022/02/01 00:46:00;;;;;;;16.75;1.63;;;3.00;99.90;;;;;;5112803;28;20055;-77
2022/02/01 00:48:26;;;;;;;15.27;1.92;;;3.00;99.90;;;;;;5111530;28;20105;-78
2022/02/01 00:50:52;;;;;;;9.27;2.08;;;3.10;99.90;;;;;;5112583;28;20081;-79
2022/02/01 00:53:27;;;;;;;13.98;2.10;;;3.20;99.90;;;;;;5112361;28;20039;-79
2022/02/01 00:55:54;;;;;;;15.52;1.70;;;3.20;99.90;;;;;;5112044;28;20031;-77
2022/02/01 00:58:20;;;;;;;16.30;1.77;;;3.00;99.90;;;;;;5112342;28;20042;-78
2022/02/01 01:00:46;;;;;;;10.65;1.73;;;3.00;99.90;;;;;;5112362;28;20097;-79
2022/02/01 01:03:11;;;;;;;20.17;1.98;;;3.00;99.90;;;;;;5111437;28;20027;-78
2022/02/01 01:05:37;;;;;;;11.38;1.48;;;3.10;99.90;;;;;;5112261;28;20035;-78
2022/02/01 01:08:03;;;;;;;5.57;1.10;;;3.30;99.90;;;;;;5111888;28;20015;-78
2022/02/01 01:10:28;;;;;;;16.80;1.25;;;3.40;99.90;;;;;;5112292;28;20023;-77
2022/02/01 01:13:06;;;;;;;5.38;1.65;;;3.30;99.90;;;;;;5112695;28;20043;-76
2022/02/01 01:15:34;;;;;;;11.10;1.05;;;3.40;99.90;;;;;;5111715;28;20506;-76
2022/02/01 01:45:27;;;;;;;8.10;2.13;;;3.20;99.90;;;;;;5111922;28;20090;-77
2022/02/01 01:53:22;;;;;;;10.57;1.42;;;3.30;99.90;;;;;;5115937;28;20615;-77
2022/02/01 01:55:53;;;;;;;8.85;1.15;;;3.30;99.90;;;;;;5115523;28;20061;-76
2022/02/01 01:58:20;;;;;;;10.98;1.15;;;3.40;99.90;;;;;;5114845;28;20403;-76
2022/02/01 02:03:20;;;;;;;10.48;1.77;;;3.50;99.90;;;;;;5115582;28;20035;-76
2022/02/01 02:05:46;;;;;;;18.55;1.75;;;3.50;99.90;;;;;;5118245;28;20115;-78
2022/02/01 02:08:12;;;;;;;15.30;1.60;;;3.50;99.90;;;;;;5115165;28;20030;-76
2022/02/01 02:10:47;;;;;;;11.80;2.08;;;3.70;99.90;;;;;;5115591;28;20126;-78
2022/02/01 02:16:00;;;;;;;9.45;2.08;;;3.70;99.90;;;;;;5118274;28;20114;-76
2022/02/01 02:18:28;;;;;;;16.52;3.97;;;3.60;99.90;;;;;;5114707;28;20467;-76
2022/02/01 02:20:55;;;;;;;9.57;1.45;;;3.70;99.90;;;;;;5115399;28;20126;-78
2022/02/01 02:23:21;;;;;;;8.18;1.52;;;3.80;99.90;;;;;;5115087;28;20069;-77
2022/02/01 02:25:48;;;;;;;15.45;2.42;;;3.80;99.90;;;;;;5114697;28;20075;-77
2022/02/01 02:28:15;;;;;;;22.80;2.97;;;3.90;99.90;;;;;;5114957;28;20150;-77
2022/02/01 02:30:43;;;;;;;17.95;1.58;;;3.90;99.90;;;;;;5115095;28;20111;-77
2022/02/01 02:33:12;;;;;;;17.45;3.38;;;3.90;99.90;;;;;;5114136;28;20035;-77
2022/02/01 02:36:00;;;;;;;11.88;1.75;;;3.90;99.90;;;;;;5115091;28;20463;-77
2022/02/01 02:38:35;;;;;;;12.77;2.45;;;3.90;99.90;;;;;;5115057;28;20485;-77
2022/02/01 02:46:23;;;;;;;19.92;4.43;;;4.00;99.90;;;;;;5114272;28;20026;-76
2022/02/01 02:48:48;;;;;;;16.17;2.08;;;4.00;99.90;;;;;;5114638;28;20027;-76
2022/02/01 02:51:14;;;;;;;14.48;2.28;;;4.00;99.90;;;;;;5114490;28;20036;-76
2022/02/01 02:53:39;;;;;;;16.27;2.30;;;4.00;99.90;;;;;;5113959;28;20561;-76
2022/02/01 02:56:08;;;;;;;12.32;1.73;;;4.00;99.90;;;;;;5114463;28;20095;-77
2022/02/01 02:58:34;;;;;;;14.07;2.65;;;4.00;99.90;;;;;;5113843;28;20161;-77
2022/02/01 03:00:59;;;;;;;9.05;2.47;;;4.00;99.90;;;;;;5113733;28;20138;-77
2022/02/01 03:03:25;;;;;;;11.35;1.85;;;4.10;99.90;;;;;;5114127;28;20028;-78
2022/02/01 03:05:53;;;;;;;13.50;1.95;;;4.20;99.90;;;;;;5114511;28;20095;-77
2022/02/01 03:08:19;;;;;;;15.98;2.00;;;4.40;99.90;;;;;;5113071;28;20027;-76
2022/02/01 03:10:45;;;;;;;9.50;1.85;;;4.50;99.90;;;;;;5114147;28;20023;-77
2022/02/01 03:13:16;;;;;;;16.05;2.60;;;4.50;99.90;;;;;;5114076;28;20028;-75
2022/02/01 03:15:49;;;;;;;10.50;1.95;;;4.60;99.90;;;;;;5113530;28;20037;-76
2022/02/01 03:20:59;;;;;;;22.60;4.25;;;4.70;99.90;;;;;;5114100;28;20042;-77
2022/02/01 03:23:25;;;;;;;13.48;3.33;;;4.70;99.90;;;;;;5112998;28;20020;-76
2022/02/01 03:25:50;;;;;;;11.48;1.83;;;4.70;99.90;;;;;;5114205;28;20035;-77
2022/02/01 03:28:16;;;;;;;12.07;2.58;;;4.70;99.90;;;;;;5113822;28;20020;-78
2022/02/01 03:30:41;;;;;;;14.55;2.47;;;4.60;99.90;;;;;;5113209;28;20020;-77
2022/02/01 03:33:07;;;;;;;12.57;2.08;;;4.60;99.90;;;;;;5128265;27;20026;-78
2022/02/01 03:35:32;;;;;;;11.43;2.08;;;4.60;99.90;;;;;;5133978;27;20094;-77
2022/02/01 03:38:00;;;;;;;10.50;2.17;;;4.70;99.90;;;;;;5133816;27;20085;-77
2022/02/01 03:40:26;;;;;;;17.48;2.15;;;4.60;99.90;;;;;;5134260;27;20285;-78
2022/02/01 03:42:52;;;;;;;14.98;2.17;;;4.60;99.90;;;;;;5133517;27;20023;-76
2022/02/01 03:45:17;;;;;;;7.90;2.22;;;4.50;99.90;;;;;;5133705;27;20122;-76
2022/02/01 03:47:43;;;;;;;11.00;3.67;;;4.50;99.90;;;;;;5134111;27;20015;-77
2022/02/01 03:50:09;;;;;;;20.67;2.65;;;4.50;99.90;;;;;;5133065;27;20535;-76
2022/02/01 03:52:35;;;;;;;13.07;1.95;;;4.50;99.90;;;;;;5134249;27;20415;-76
2022/02/01 03:55:00;;;;;;;18.95;2.35;;;4.50;99.90;;;;;;5115699;27;20035;-78
2022/02/01 03:57:26;;;;;;;11.60;1.95;;;4.60;99.90;;;;;;5132811;27;20108;-76
2022/02/01 03:59:52;;;;;;;14.70;2.55;;;4.50;99.90;;;;;;5134066;27;20054;-76
2022/02/01 04:02:18;;;;;;;19.35;2.38;;;4.50;99.90;;;;;;5133272;27;20052;-75
2022/02/01 04:04:46;;;;;;;14.80;2.00;;;4.50;99.90;;;;;;5133041;27;20115;-76
2022/02/01 04:07:12;;;;;;;15.55;2.60;;;4.60;99.90;;;;;;5134493;27;20107;-77
2022/02/01 04:09:37;;;;;;;14.40;2.25;;;4.60;99.90;;;;;;5134387;27;20125;-75
2022/02/01 04:12:05;;;;;;;15.73;2.30;;;4.60;99.90;;;;;;5136213;27;20015;-75
2022/02/01 04:14:33;;;;;;;14.63;3.17;;;4.60;99.90;;;;;;5133954;27;20383;-78
2022/02/01 04:17:01;;;;;;;12.05;2.25;;;4.60;99.90;;;;;;5134633;27;20020;-77
2022/02/01 04:19:29;;;;;;;17.73;2.60;;;4.70;99.90;;;;;;5133187;27;20367;-77
2022/02/01 04:22:01;;;;;;;9.98;2.40;;;4.70;99.90;;;;;;5138205;27;20046;-77
2022/02/01 04:24:37;;;;;;;12.07;1.85;;;4.80;99.90;;;;;;5133410;27;20146;-77
2022/02/01 04:27:04;;;;;;;19.00;2.00;;;4.80;99.90;;;;;;5132820;27;20023;-77
2022/02/01 04:29:30;;;;;;;20.25;2.85;;;4.90;99.90;;;;;;5133771;27;20023;-77
2022/02/01 04:31:55;;;;;;;15.35;2.20;;;4.90;99.90;;;;;;5133804;27;20332;-76
2022/02/01 04:34:21;;;;;;;12.75;3.75;;;4.80;99.90;;;;;;5134479;27;20019;-76
2022/02/01 04:36:47;;;;;;;17.50;2.75;;;4.90;99.90;;;;;;5133659;27;20106;-77
2022/02/01 04:39:12;;;;;;;15.57;2.20;;;5.00;99.90;;;;;;5132353;27;20023;-77
2022/02/01 04:41:38;;;;;;;13.38;3.50;;;4.90;99.90;;;;;;5133274;27;20042;-77
2022/02/01 04:44:04;;;;;;;14.88;2.95;;;5.00;99.90;;;;;;5133063;27;20038;-77
2022/02/01 04:46:30;;;;;;;14.07;3.03;;;5.00;99.90;;;;;;5132099;27;20394;-77
2022/02/01 04:49:02;;;;;;;25.23;3.55;;;5.00;99.90;;;;;;5133368;28;20019;-77
2022/02/01 04:51:29;;;;;;;15.23;3.53;;;5.10;99.90;;;;;;5133529;28;20023;-77
2022/02/01 04:53:58;;;;;;;24.42;4.63;;;5.10;99.90;;;;;;5133299;28;20427;-77
2022/02/01 04:56:25;;;;;;;30.67;4.75;;;5.80;99.90;;;;;;5134224;27;20120;-77
2022/02/01 04:58:50;;;;;;;24.80;3.22;;;5.10;99.90;;;;;;5133735;28;20127;-78
2022/02/01 05:01:17;;;;;;;18.20;3.47;;;5.20;99.90;;;;;;5133811;27;20134;-78
2022/02/01 05:03:42;;;;;;;24.42;5.43;;;5.20;99.90;;;;;;5135147;27;20027;-78
2022/02/01 05:06:09;;;;;;;26.00;3.88;;;5.20;99.90;;;;;;5133141;28;20110;-77
2022/02/01 05:08:35;;;;;;;14.05;3.10;;;5.20;99.90;;;;;;5133295;28;20023;-76
2022/02/01 05:11:00;;;;;;;21.38;3.08;;;5.20;99.90;;;;;;5133577;27;20030;-75
2022/02/01 05:16:04;;;;;;;13.55;2.80;;;5.30;99.90;;;;;;5132876;27;20034;-76
2022/02/01 05:19:02;;;;;;;19.67;4.47;;;5.30;99.90;;;;;;5134044;27;20031;-77
2022/02/01 05:21:24;;;;;;;15.93;2.90;;;5.30;99.90;;;;;;5133892;27;20507;-76
2022/02/01 05:23:51;;;;;;;25.60;3.28;;;5.90;99.90;;;;;;5137584;27;20031;-75
2022/02/01 05:26:22;;;;;;;23.67;3.50;;;5.30;99.90;;;;;;5137855;27;20030;-76
2022/02/01 05:28:48;;;;;;;19.60;3.67;;;5.30;99.90;;;;;;5136608;27;20037;-76
2022/02/01 05:31:14;;;;;;;18.30;3.65;;;5.30;99.90;;;;;;5137677;27;20114;-77
2022/02/01 05:33:40;;;;;;;24.92;3.67;;;5.40;99.90;;;;;;5138028;27;20091;-76
2022/02/01 05:36:07;;;;;;;17.58;3.35;;;5.40;99.90;;;;;;5135814;27;20088;-76
2022/02/01 05:38:33;;;;;;;14.18;3.45;;;5.50;99.90;;;;;;5137210;27;20486;-76
2022/02/01 05:40:59;;;;;;;13.63;3.03;;;5.40;99.90;;;;;;5137161;27;20471;-75
2022/02/01 05:43:27;;;;;;;27.63;4.47;;;5.50;99.90;;;;;;5135775;27;20019;-74
2022/02/01 05:45:55;;;;;;;17.98;3.40;;;5.40;99.90;;;;;;5137047;27;20493;-77
2022/02/01 05:48:21;;;;;;;17.90;3.30;;;5.40;99.90;;;;;;5136349;27;20029;-76
2022/02/01 05:50:51;;;;;;;21.65;4.28;;;5.50;99.90;;;;;;5135709;27;20483;-76
2022/02/01 05:53:18;;;;;;;17.17;4.18;;;5.40;99.90;;;;;;5136704;27;20034;-76
2022/02/01 05:55:46;;;;;;;24.13;4.93;;;6.00;99.90;;;;;;5136645;27;20027;-76
2022/02/01 05:58:15;;;;;;;31.25;4.93;;;5.50;99.90;;;;;;5135785;27;20027;-77
2022/02/01 06:00:41;;;;;;;27.17;4.10;;;5.40;99.90;;;;;;5137208;27;20129;-77
2022/02/01 06:03:07;;;;;;;21.55;4.45;;;5.50;99.90;;;;;;5137102;27;20031;-77
2022/02/01 06:05:32;;;;;;;17.40;3.92;;;5.40;99.90;;;;;;5136703;27;20042;-77
2022/02/01 06:07:58;;;;;;;17.27;4.25;;;5.40;99.90;;;;;;5137055;27;20020;-77
2022/02/01 06:10:24;;;;;;;21.00;4.47;;;5.50;99.90;;;;;;5135505;27;20023;-76
2022/02/01 06:12:50;;;;;;;23.13;4.10;;;5.50;99.90;;;;;;5136262;27;20458;-75
2022/02/01 06:15:18;;;;;;;15.60;4.07;;;5.40;99.90;;;;;;5135895;27;20034;-76
2022/02/01 06:17:44;;;;;;;23.20;5.00;;;5.50;99.90;;;;;;5137153;27;20072;-76
2022/02/01 06:20:12;;;;;;;28.60;5.47;;;5.50;99.90;;;;;;5135851;27;20027;-73
2022/02/01 06:22:39;;;;;;;31.63;4.88;;;5.50;99.90;;;;;;5135886;27;20365;-75
2022/02/01 06:25:05;;;;;;;17.15;5.05;;;5.50;99.90;;;;;;5128370;27;20111;-75
2022/02/01 06:27:31;;;;;;;20.70;7.63;;;5.50;99.90;;;;;;5120836;27;20062;-77
2022/02/01 06:29:57;;;;;;;33.80;6.55;;;5.60;99.90;;;;;;5114278;27;20063;-77
2022/02/01 06:32:32;;;;;;;31.13;5.75;;;5.50;99.90;;;;;;5114221;27;20479;-76
2022/02/01 06:34:57;;;;;;;13.75;6.05;;;5.50;99.90;;;;;;5114191;27;20024;-76
2022/02/01 06:37:23;;;;;;;27.75;6.22;;;5.50;99.90;;;;;;5114508;27;20107;-77
2022/02/01 06:39:48;;;;;;;22.63;4.95;;;5.60;99.90;;;;;;5116517;27;20425;-75
2022/02/01 06:42:16;;;;;;;24.38;5.80;;;5.60;99.90;;;;;;5114014;27;20051;-76
2022/02/01 06:44:42;;;;;;;22.23;7.25;;;5.60;99.90;;;;;;5116997;27;20027;-76
2022/02/01 06:47:07;;;;;;;22.30;6.80;;;5.60;99.90;;;;;;5113542;28;20084;-76
2022/02/01 06:49:33;;;;;;;24.55;7.45;;;5.50;99.90;;;;;;5115377;28;20096;-76
2022/02/01 06:51:59;;;;;;;30.73;8.43;;;5.60;99.90;;;;;;5095329;28;20023;-76
2022/02/01 06:54:24;;;;;;;24.23;8.75;;;5.60;99.90;;;;;;5113089;28;20042;-76
2022/02/01 06:56:50;;;;;;;36.35;8.95;;;5.70;99.90;;;;;;5116736;27;20012;-75
2022/02/01 06:59:15;;;;;;;36.08;8.75;;;5.70;99.90;;;;;;5114208;27;20028;-75
2022/02/01 07:01:41;;;;;;;31.80;8.57;;;5.60;99.90;;;;;;5115419;27;20027;-77
2022/02/01 07:04:07;;;;;;;25.50;8.50;;;5.60;99.90;;;;;;5113705;28;20031;-77
2022/02/01 07:06:34;;;;;;;29.67;9.15;;;5.60;99.90;;;;;;5112981;27;20069;-77
2022/02/01 07:09:02;;;;;;;26.38;9.07;;;5.70;99.90;;;;;;5112505;28;20023;-77
2022/02/01 07:11:28;;;;;;;24.27;8.45;;;5.60;99.90;;;;;;5115790;27;20027;-78
2022/02/01 07:13:54;;;;;;;20.05;7.93;;;5.70;99.90;;;;;;5114790;27;20398;-76
2022/02/01 07:16:22;;;;;;;23.15;8.70;;;5.70;99.90;;;;;;5113281;27;20068;-76
2022/02/01 07:18:51;;;;;;;18.77;8.50;;;5.70;99.90;;;;;;5114634;27;20027;-75
2022/02/01 07:21:16;;;;;;;18.77;7.03;;;5.80;99.90;;;;;;5112387;28;20100;-74
2022/02/01 07:23:42;;;;;;;13.48;6.60;;;5.90;99.90;;;;;;5116391;27;20475;-75
2022/02/01 07:26:08;;;;;;;15.10;7.35;;;5.90;99.90;;;;;;5112632;28;20375;-75
2022/02/01 07:28:35;;;;;;;21.85;7.38;;;5.90;99.90;;;;;;5112005;27;20498;-76
2022/02/01 07:31:01;;;;;;;11.65;5.93;;;5.90;99.90;;;;;;5112322;27;20106;-76
2022/02/01 07:33:28;;;;;;;15.48;5.72;;;6.00;99.90;;;;;;5112257;27;20589;-76
2022/02/01 07:35:54;;;;;;;15.20;5.88;;;6.00;99.90;;;;;;5111940;28;20080;-75
2022/02/01 07:38:25;;;;;;;12.57;4.70;;;6.10;99.90;;;;;;5112424;28;20020;-76
2022/02/01 07:40:52;;;;;;;10.95;4.88;;;6.10;99.90;;;;;;5115864;27;20026;-76
2022/02/01 07:43:19;;;;;;;7.95;4.40;;;6.10;99.90;;;;;;5113941;27;20111;-76
2022/02/01 07:45:47;;;;;;;6.43;4.63;;;6.10;99.90;;;;;;5112498;28;20063;-75
2022/02/01 07:48:13;;;;;;;8.18;4.47;;;6.20;99.90;;;;;;5111808;27;20047;-75
2022/02/01 07:50:40;;;;;;;6.15;3.90;;;6.20;99.90;;;;;;5116288;27;20165;-74
2022/02/01 07:53:07;;;;;;;6.68;4.28;;;6.20;99.90;;;;;;5112069;28;20075;-75
2022/02/01 07:55:34;;;;;;;4.47;3.80;;;6.20;99.90;;;;;;5112026;28;20031;-75
2022/02/01 07:57:59;;;;;;;5.35;3.67;;;6.30;99.90;;;;;;5111663;27;20109;-75
2022/02/01 08:00:25;;;;;;;5.40;3.70;;;6.30;99.90;;;;;;5113329;27;20047;-75
2022/02/01 08:02:55;;;;;;;7.38;4.15;;;6.30;99.90;;;;;;5113660;27;20034;-76
2022/02/01 08:05:21;;;;;;;7.45;3.75;;;6.30;99.90;;;;;;5112353;28;20328;-76
2022/02/01 08:07:47;;;;;;;4.22;3.33;;;6.30;99.90;;;;;;5113462;28;20118;-76
2022/02/01 08:10:15;;;;;;;4.32;3.72;;;6.30;99.90;;;;;;5112301;27;20317;-77
2022/02/01 08:20:52;;;;;;;4.57;4.00;;;6.40;99.90;;;;;;5113309;28;20107;-76
2022/02/01 08:23:17;;;;;;;4.13;3.42;;;6.40;99.90;;;;;;5114215;28;20103;-76
2022/02/01 08:25:43;;;;;;;4.57;3.58;;;6.50;99.90;;;;;;5112571;28;20039;-76
2022/02/01 08:28:10;;;;;;;5.07;3.40;;;6.50;99.90;;;;;;5113356;28;20061;-77
2022/02/01 08:30:36;;;;;;;2.88;2.60;;;6.50;99.90;;;;;;5117995;27;20027;-77
2022/02/01 08:33:02;;;;;;;3.47;2.55;;;6.50;99.90;;;;;;5115142;28;20416;-76
2022/02/01 08:35:28;;;;;;;5.03;4.32;;;6.60;99.90;;;;;;5113397;28;20379;-75
2022/02/01 08:37:53;;;;;;;3.53;1.75;;;6.60;99.90;;;;;;5112917;28;20031;-75
2022/02/01 08:40:19;;;;;;;3.55;3.28;;;6.60;99.90;;;;;;5111979;28;20063;-75
2022/02/01 08:42:51;;;;;;;7.45;2.97;;;6.70;99.90;;;;;;5113030;28;20106;-75
2022/02/01 08:45:23;;;;;;;4.70;3.22;;;6.70;99.90;;;;;;5111839;28;20066;-77
2022/02/01 08:47:58;;;;;;;2.85;2.25;;;6.70;99.90;;;;;;5112369;28;20056;-76
2022/02/01 08:50:30;;;;;;;4.90;2.65;;;6.80;99.90;;;;;;5117820;28;20028;-76
2022/02/01 08:53:10;;;;;;;7.53;3.50;;;6.80;99.90;;;;;;5112766;28;20036;-75
2022/02/01 08:55:40;;;;;;;5.80;3.97;;;6.80;99.90;;;;;;5113928;28;20027;-79
2022/02/01 08:58:07;;;;;;;4.50;3.53;;;6.80;99.90;;;;;;5117309;28;20028;-74
2022/02/01 09:00:33;;;;;;;5.15;3.33;;;6.80;99.90;;;;;;5115987;28;20507;-75
2022/02/01 09:03:03;;;;;;;5.07;3.25;;;6.90;99.90;;;;;;5117491;28;20019;-77
2022/02/01 09:05:30;;;;;;;4.65;3.33;;;6.90;99.90;;;;;;5117220;28;20522;-77
2022/02/01 09:07:58;;;;;;;5.28;2.75;;;6.90;99.90;;;;;;5116888;28;20028;-75
2022/02/01 09:10:23;;;;;;;2.60;2.40;;;6.90;99.90;;;;;;5116827;28;20050;-73
2022/02/01 09:12:49;;;;;;;3.65;2.33;;;6.90;99.90;;;;;;5125637;27;20502;-75
2022/02/01 09:15:15;;;;;;;5.22;2.65;;;6.90;99.90;;;;;;5135232;27;20482;-73
2022/02/01 09:17:43;;;;;;;2.47;2.28;;;7.00;99.90;;;;;;5135184;27;20029;-73
2022/02/01 09:20:08;;;;;;;5.88;2.40;;;7.00;99.90;;;;;;5135597;27;20027;-70
2022/02/01 09:22:34;;;;;;;5.65;2.63;;;7.00;99.90;;;;;;5134662;27;20100;-70
2022/02/01 09:24:59;;;;;;;3.10;2.22;;;7.00;99.90;;;;;;5136260;27;20038;-77
2022/02/01 09:27:25;;;;;;;5.05;1.98;;;7.10;99.90;;;;;;5135535;27;20019;-73
2022/02/01 09:29:51;;;;;;;7.65;1.95;;;7.10;99.90;;;;;;5132313;27;20015;-75
2022/02/01 09:32:16;;;;;;;6.47;2.50;;;7.10;99.90;;;;;;5122404;27;20023;-72
2022/02/01 09:34:42;;;;;;;4.03;2.30;;;7.10;99.90;;;;;;5124492;27;20035;-76
2022/02/01 09:37:07;;;;;;;4.75;2.03;;;7.10;99.90;;;;;;5119562;27;20114;-74
2022/02/01 09:39:34;;;;;;;6.85;2.92;;;7.10;99.90;;;;;;5138044;27;20034;-77
2022/02/01 09:42:00;;;;;;;7.38;2.90;;;7.20;99.90;;;;;;5134850;27;20485;-76
2022/02/01 09:44:26;;;;;;;4.57;2.63;;;7.20;99.90;;;;;;5131483;27;20119;-77
2022/02/01 09:46:54;;;;;;;5.43;2.25;;;7.20;99.90;;;;;;5125487;27;20494;-77
2022/02/01 09:49:24;;;;;;;6.30;2.60;;;7.20;99.90;;;;;;5132446;27;20071;-77
2022/02/01 09:51:57;;;;;;;4.78;2.65;;;7.20;99.90;;;;;;5123742;27;20023;-77
2022/02/01 09:54:24;;;;;;;4.78;2.90;;;7.30;99.90;;;;;;5133429;27;20034;-77
2022/02/01 09:56:51;;;;;;;4.65;2.55;;;7.30;99.90;;;;;;5129719;27;20030;-77
2022/02/01 09:59:20;;;;;;;7.07;2.00;;;7.30;99.90;;;;;;5124995;27;20432;-77
2022/02/01 10:01:47;;;;;;;6.28;3.95;;;7.30;99.90;;;;;;5121968;27;20071;-77
2022/02/01 10:04:13;;;;;;;4.68;1.95;;;7.30;99.90;;;;;;5115508;27;20036;-77
2022/02/01 10:06:39;;;;;;;8.38;3.20;;;7.30;99.90;;;;;;5121049;27;20015;-76
2022/02/01 10:09:13;;;;;;;9.55;3.53;;;7.30;99.90;;;;;;5122365;27;20661;-73
2022/02/01 10:11:41;;;;;;;10.10;3.17;;;7.40;99.90;;;;;;5121923;27;20019;-76
2022/02/01 10:14:10;;;;;;;14.25;3.42;;;7.40;99.90;;;;;;5128496;27;20019;-76
2022/02/01 10:16:44;;;;;;;8.32;2.78;;;7.40;99.90;;;;;;5134288;27;20478;-77
2022/02/01 10:19:12;;;;;;;8.95;3.10;;;8.30;99.90;;;;;;5132059;27;20031;-77
2022/02/01 10:21:50;;;;;;;7.80;3.47;;;7.40;99.90;;;;;;5134079;27;20027;-76
2022/02/01 10:24:30;;;;;;;9.10;3.88;;;7.40;99.90;;;;;;5132731;27;20046;-77
2022/02/01 10:27:20;;;;;;;13.95;4.13;;;7.40;99.90;;;;;;5133906;27;20027;-75
2022/02/01 10:30:18;;;;;;;11.90;4.13;;;7.50;99.90;;;;;;5136347;27;20031;-76
2022/02/01 10:33:09;;;;;;;15.48;6.03;;;7.50;99.90;;;;;;5118751;27;20020;-77
2022/02/01 10:35:55;;;;;;;10.15;5.00;;;7.60;99.90;;;;;;5122101;27;20406;-75
2022/02/01 10:38:30;;;;;;;20.67;7.70;;;7.60;99.90;;;;;;5119618;27;20028;-76
2022/02/01 10:40:56;;;;;;;15.73;7.93;;;7.70;99.90;;;;;;5121395;27;20039;-75
2022/02/01 10:43:23;;;;;;;26.50;9.32;;;7.70;99.90;;;;;;5118778;27;20016;-77
2022/02/01 10:45:50;;;;;;;29.35;9.35;;;7.70;99.90;;;;;;5125126;27;20031;-73
2022/02/01 10:48:22;;;;;;;25.98;7.15;;;7.80;99.90;;;;;;5126892;27;20012;-75
2022/02/01 10:51:03;;;;;;;28.23;10.65;;;7.80;99.90;;;;;;5128198;27;20144;-75
2022/02/01 10:53:30;;;;;;;20.25;7.78;;;7.80;99.90;;;;;;5129384;27;20472;-76
2022/02/01 10:55:57;;;;;;;14.95;7.80;;;7.80;99.90;;;;;;5133788;27;20051;-76
2022/02/01 10:58:22;;;;;;;20.90;9.05;;;7.90;99.90;;;;;;5125020;27;20027;-77
2022/02/01 11:00:51;;;;;;;21.92;8.48;;;8.00;99.90;;;;;;5130682;27;20080;-76
2022/02/01 11:03:17;;;;;;;17.63;8.07;;;7.90;99.90;;;;;;5127724;27;20035;-77
2022/02/01 11:05:50;;;;;;;21.02;8.50;;;8.00;99.90;;;;;;5123590;27;20038;-77
2022/02/01 11:08:29;;;;;;;18.60;6.20;;;8.00;99.90;;;;;;5118189;27;20020;-76
2022/02/01 11:10:57;;;;;;;19.70;8.35;;;8.10;99.90;;;;;;5116361;27;20460;-77
2022/02/01 11:13:34;;;;;;;17.83;7.38;;;8.20;99.90;;;;;;5121431;27;20495;-76
2022/02/01 11:16:05;;;;;;;28.70;8.48;;;8.20;99.90;;;;;;5120537;27;20450;-76
2022/02/01 11:18:31;;;;;;;21.33;6.63;;;8.20;99.90;;;;;;5117882;27;20414;-76
2022/02/01 11:21:03;;;;;;;20.05;5.60;;;8.20;99.90;;;;;;5115074;27;20488;-76
2022/02/01 11:24:01;;;;;;;18.95;7.95;;;8.30;99.90;;;;;;5116377;27;20016;-75
2022/02/01 11:26:38;;;;;;;18.35;6.20;;;8.20;99.90;;;;;;5117505;27;20055;-76
2022/02/01 11:31:50;;;;;;;22.02;5.45;;;8.20;99.90;;;;;;5130427;27;20257;-77
2022/02/01 11:34:39;;;;;;;16.67;5.25;;;8.30;99.90;;;;;;5119691;27;20023;-77
2022/02/01 11:37:10;;;;;;;15.55;5.85;;;8.30;99.90;;;;;;5130851;27;20023;-76
2022/02/01 11:39:50;;;;;;;11.77;4.05;;;8.40;99.90;;;;;;5133960;27;20027;-76
2022/02/01 11:42:17;;;;;;;11.32;4.50;;;8.50;99.90;;;;;;5132059;27;20055;-77
2022/02/01 11:44:43;;;;;;;19.38;3.88;;;8.60;99.90;;;;;;5133440;27;20055;-77
2022/02/01 11:47:20;;;;;;;12.18;3.28;;;8.60;99.90;;;;;;5132762;27;20023;-76
2022/02/01 11:49:55;;;;;;;14.95;3.45;;;8.70;99.90;;;;;;5132811;27;20462;-76
2022/02/01 11:52:22;;;;;;;12.30;4.57;;;8.80;99.90;;;;;;5133181;27;20032;-77
2022/02/01 11:54:58;;;;;;;9.98;4.30;;;8.80;99.90;;;;;;5132759;27;20137;-76
2022/02/01 11:57:27;;;;;;;7.93;3.75;;;8.80;99.90;;;;;;5131828;27;20050;-76
2022/02/01 11:59:57;;;;;;;11.95;3.78;;;8.90;99.90;;;;;;5126658;27;20024;-76
2022/02/01 12:02:26;;;;;;;15.48;3.55;;;9.00;99.90;;;;;;5130607;27;20046;-74
2022/02/01 12:04:52;;;;;;;5.82;2.75;;;8.90;99.90;;;;;;5130707;27;20035;-74
2022/02/01 12:07:23;;;;;;;10.10;3.33;;;8.90;99.90;;;;;;5129129;27;20031;-75
2022/02/01 12:09:50;;;;;;;8.55;4.45;;;9.00;99.90;;;;;;5128761;27;20053;-77
2022/02/01 12:12:23;;;;;;;14.13;3.85;;;9.10;99.90;;;;;;5131133;27;20094;-77
2022/02/01 12:14:55;;;;;;;13.30;2.80;;;9.10;99.90;;;;;;5132395;27;20088;-77
2022/02/01 12:17:22;;;;;;;13.27;4.13;;;9.20;99.90;;;;;;5131292;27;20467;-76
2022/02/01 12:19:55;;;;;;;13.07;3.70;;;9.20;99.90;;;;;;5133116;27;20031;-77
2022/02/01 12:22:39;;;;;;;13.75;3.78;;;9.20;99.90;;;;;;5131609;27;20053;-76
2022/02/01 12:25:08;;;;;;;10.52;3.22;;;9.30;99.90;;;;;;5131259;27;20088;-76
2022/02/01 12:27:38;;;;;;;9.57;2.35;;;9.30;99.90;;;;;;5131436;27;20032;-74
2022/02/01 12:30:06;;;;;;;9.23;4.18;;;9.30;99.90;;;;;;5132064;27;20043;-75
2022/02/01 12:32:33;;;;;;;10.23;3.28;;;9.30;99.90;;;;;;5131627;27;20034;-76
2022/02/01 12:34:59;;;;;;;11.07;3.47;;;9.40;99.90;;;;;;5133241;27;20027;-77
2022/02/01 12:37:25;;;;;;;11.43;3.28;;;9.50;99.90;;;;;;5124842;27;20054;-77
2022/02/01 12:40:07;;;;;;;10.35;2.83;;;9.50;99.90;;;;;;5118695;27;20053;-78
2022/02/01 12:42:42;;;;;;;8.32;2.63;;;9.50;99.90;;;;;;5118079;27;20035;-76
2022/02/01 12:48:00;;;;;;;7.80;1.92;;;9.60;99.90;;;;;;5132079;27;20096;-76
2022/02/01 12:50:26;;;;;;;11.95;3.22;;;9.70;99.90;;;;;;5131833;27;20054;-76
2022/02/01 12:53:00;;;;;;;6.70;2.30;;;9.70;99.90;;;;;;5131224;27;20070;-76
2022/02/01 12:55:26;;;;;;;8.45;2.33;;;9.60;99.90;;;;;;5124162;28;20106;-76
2022/02/01 12:57:53;;;;;;;4.70;1.50;;;9.70;99.90;;;;;;5116695;28;20297;-76
2022/02/01 13:00:22;;;;;;;6.65;3.08;;;9.70;99.90;;;;;;5129035;28;20066;-76
2022/02/01 13:02:54;;;;;;;10.80;1.92;;;9.80;99.90;;;;;;5131656;28;20037;-76
2022/02/01 13:05:20;;;;;;;8.75;3.03;;;9.80;99.90;;;;;;5130929;27;20140;-77
2022/02/01 13:21:17;;;;;;;4.55;2.08;;;9.80;99.90;;;;;;5130837;28;20019;-77
2022/02/01 13:23:44;;;;;;;12.52;2.70;;;9.80;99.90;;;;;;5128737;27;20117;-76
2022/02/01 13:26:15;;;;;;;6.72;2.28;;;9.90;99.90;;;;;;5127963;28;20031;-77
2022/02/01 13:28:42;;;;;;;8.02;2.00;;;9.90;99.90;;;;;;5119241;28;20458;-78
2022/02/01 13:31:13;;;;;;;4.70;2.20;;;9.90;99.90;;;;;;5119699;28;20154;-78
2022/02/01 13:34:06;;;;;;;10.65;2.63;;;9.90;99.90;;;;;;5119776;28;20338;-73
2022/02/01 13:36:52;;;;;;;8.48;1.95;;;10.00;99.90;;;;;;5115697;28;20457;-80
2022/02/01 13:39:30;;;;;;;8.63;2.55;;;10.00;99.90;;;;;;5119840;28;20028;-80
2022/02/01 13:42:06;;;;;;;10.48;2.75;;;10.00;99.90;;;;;;5125086;27;20031;-80
2022/02/01 13:44:32;;;;;;;13.52;2.92;;;9.90;99.90;;;;;;5134509;27;20031;-80
2022/02/01 13:47:06;;;;;;;10.77;2.47;;;9.90;99.90;;;;;;5136877;27;20052;-77
2022/02/01 13:49:32;;;;;;;5.93;3.33;;;9.90;99.90;;;;;;5136155;27;20540;-78
2022/02/01 13:51:58;;;;;;;10.85;4.00;;;9.90;99.90;;;;;;5137328;27;20028;-79
2022/02/01 13:54:45;;;;;;;4.57;2.05;;;9.90;99.90;;;;;;5136210;27;20497;-79
2022/02/01 13:57:12;;;;;;;10.23;2.80;;;9.90;99.90;;;;;;5136020;27;20051;-80
2022/02/01 13:59:39;;;;;;;4.75;2.90;;;9.80;99.90;;;;;;5136755;27;20043;-80
2022/02/01 14:02:11;;;;;;;10.23;3.75;;;9.90;99.90;;;;;;5121210;27;20047;-81
2022/02/01 14:04:50;;;;;;;8.80;4.00;;;9.90;99.90;;;;;;5119502;28;20494;-82
2022/02/01 14:10:42;;;;;;;5.60;2.40;;;9.90;99.90;;;;;;5118311;28;20027;-81
2022/02/01 14:34:14;;;;;;;8.07;2.72;;;10.00;99.90;;;;;;5116224;28;20031;-80
2022/02/01 14:36:41;;;;;;;12.57;2.40;;;10.00;99.90;;;;;;5116898;28;20016;-80
2022/02/01 14:46:52;;;;;;;9.10;1.85;;;10.00;99.90;;;;;;5117902;28;20024;-79
2022/02/01 14:49:19;;;;;;;13.60;2.00;;;10.00;99.90;;;;;;5118657;28;20028;-78
2022/02/01 14:51:45;;;;;;;10.70;2.17;;;10.00;99.90;;;;;;5115850;28;20034;-78
2022/02/01 14:54:17;;;;;;;7.70;1.90;;;10.00;99.90;;;;;;5114939;28;20122;-80
2022/02/01 14:56:44;;;;;;;10.20;3.00;;;10.00;99.90;;;;;;5115999;28;20028;-79
2022/02/01 15:14:50;;;;;;;10.27;2.15;;;10.00;99.90;;;;;;5115231;28;20119;-79
2022/02/01 15:17:16;;;;;;;8.52;2.13;;;10.00;99.90;;;;;;5114336;28;20448;-81
2022/02/01 15:19:42;;;;;;;13.65;3.38;;;9.90;99.90;;;;;;5114576;28;20379;-81
2022/02/01 15:22:07;;;;;;;11.38;2.47;;;9.90;99.90;;;;;;5114932;28;20027;-80
2022/02/01 15:24:33;;;;;;;8.50;1.95;;;9.90;99.90;;;;;;5114842;28;20035;-81
2022/02/01 15:26:59;;;;;;;11.93;2.40;;;9.90;99.90;;;;;;5114171;28;20015;-81
2022/02/01 15:29:24;;;;;;;12.77;1.73;;;9.90;99.90;;;;;;5114607;28;20036;-80